createdAt,value
2017-01-03T00:00:18.493Z,42.36
2017-01-03T00:01:18.126Z,42.26
2017-01-03T00:02:18.556Z,42.16
2017-01-03T00:03:18.176Z,42.36
2017-01-03T00:04:18.604Z,42.26
2017-01-03T00:05:18.625Z,42.46
2017-01-03T00:06:18.655Z,42.07
2017-01-03T00:07:18.679Z,42.16
2017-01-03T00:08:18.712Z,41.97
2017-01-03T00:09:18.336Z,42.36
2017-01-03T00:10:18.761Z,42.46
2017-01-03T00:11:18.794Z,42.46
2017-01-03T00:12:18.810Z,42.16
2017-01-03T00:13:18.443Z,42.36
2017-01-03T00:14:18.472Z,42.26
2017-01-03T00:15:18.893Z,42.07
2017-01-03T00:16:18.914Z,42.26
2017-01-03T00:17:18.942Z,42.16
2017-01-03T00:18:18.979Z,42.07
2017-01-03T00:19:18.603Z,42.24
2017-01-03T00:20:19.025Z,42.46
2017-01-03T00:21:18.657Z,42.46
2017-01-03T00:22:18.686Z,42.46
2017-01-03T00:23:18.712Z,41.97
2017-01-03T00:24:19.127Z,41.97
2017-01-03T00:25:19.164Z,41.78
2017-01-03T00:26:19.185Z,41.68
2017-01-03T00:27:18.813Z,41.68
2017-01-03T00:28:18.868Z,41.97
2017-01-03T00:29:19.267Z,41.66
2017-01-03T00:30:18.896Z,42.07
2017-01-03T00:31:18.920Z,41.76
2017-01-03T00:32:18.945Z,42.05
2017-01-03T00:33:19.370Z,41.76
2017-01-03T00:34:19.398Z,41.76
2017-01-03T00:35:19.423Z,41.68
2017-01-03T00:36:19.453Z,41.76
2017-01-03T00:37:19.085Z,42.43
2017-01-03T00:38:19.502Z,42.33
2017-01-03T00:39:19.167Z,42.43
2017-01-03T00:40:19.163Z,42.43
2017-01-03T00:41:19.588Z,42.43
2017-01-03T00:42:19.618Z,42.33
2017-01-03T00:43:19.637Z,42.05
2017-01-03T00:44:19.670Z,41.66
2017-01-03T00:45:19.295Z,41.76
2017-01-03T00:46:19.320Z,41.56
2017-01-03T00:47:19.349Z,41.66
2017-01-03T00:48:19.770Z,41.66
2017-01-03T00:49:19.402Z,41.56
2017-01-03T00:50:19.427Z,41.66
2017-01-03T00:51:19.851Z,41.66
2017-01-03T00:52:19.480Z,41.66
2017-01-03T00:53:19.505Z,41.95
2017-01-03T00:54:19.533Z,41.76
2017-01-03T00:55:19.563Z,41.66
2017-01-03T00:56:19.983Z,41.76
2017-01-03T00:57:20.009Z,41.56
2017-01-03T00:58:20.033Z,41.66
2017-01-03T00:59:20.089Z,41.95
2017-01-03T01:00:19.694Z,41.95
2017-01-03T01:01:19.711Z,41.95
2017-01-03T01:02:20.143Z,41.95
2017-01-03T01:03:19.772Z,41.95
2017-01-03T01:04:20.189Z,41.86
2017-01-03T01:05:19.826Z,42.14
2017-01-03T01:06:20.247Z,42.14
2017-01-03T01:07:19.879Z,42.05
2017-01-03T01:08:19.909Z,42.05
2017-01-03T01:09:19.932Z,42.05
2017-01-03T01:10:20.357Z,42.14
2017-01-03T01:11:19.982Z,42.05
2017-01-03T01:12:20.411Z,41.95
2017-01-03T01:13:20.033Z,41.95
2017-01-03T01:14:20.065Z,42.05
2017-01-03T01:15:20.489Z,42.24
2017-01-03T01:16:20.126Z,41.66
2017-01-03T01:17:20.142Z,42.43
2017-01-03T01:18:20.567Z,42.33
2017-01-03T01:19:20.196Z,42.14
2017-01-03T01:20:20.784Z,42.14
2017-01-03T01:21:20.645Z,42.14
2017-01-03T01:22:20.302Z,42.14
2017-01-03T01:23:20.303Z,42.24
2017-01-03T01:24:20.724Z,42.05
2017-01-03T01:25:20.752Z,42.14
2017-01-03T01:26:20.773Z,42.05
2017-01-03T01:27:20.805Z,42.33
2017-01-03T01:28:20.834Z,42.14
2017-01-03T01:29:20.459Z,42.05
2017-01-03T01:30:20.487Z,42.33
2017-01-03T01:31:20.910Z,42.05
2017-01-03T01:32:20.941Z,42.14
2017-01-03T01:33:20.574Z,42.14
2017-01-03T01:34:20.595Z,42.24
2017-01-03T01:35:20.619Z,42.14
2017-01-03T01:36:21.040Z,42.05
2017-01-03T01:37:20.673Z,42.05
2017-01-03T01:38:20.697Z,42.14
2017-01-03T01:39:20.717Z,42.14
2017-01-03T01:40:21.147Z,42.14
2017-01-03T01:41:20.775Z,41.76
2017-01-03T01:42:21.199Z,41.76
2017-01-03T01:43:21.228Z,41.66
2017-01-03T01:44:20.869Z,41.86
2017-01-03T01:45:20.878Z,41.66
2017-01-03T01:46:20.907Z,41.66
2017-01-03T01:47:21.331Z,42.14
2017-01-03T01:48:20.952Z,41.86
2017-01-03T01:49:21.020Z,41.66
2017-01-03T01:50:21.409Z,41.86
2017-01-03T01:51:21.442Z,42.05
2017-01-03T01:52:21.454Z,42.14
2017-01-03T01:53:21.091Z,42.05
2017-01-03T01:54:21.116Z,41.95
2017-01-03T01:55:21.144Z,42.05
2017-01-03T01:56:21.567Z,41.95
2017-01-03T01:57:21.190Z,41.93
2017-01-03T01:58:21.222Z,41.95
2017-01-03T01:59:21.651Z,41.83
2017-01-03T02:00:21.272Z,41.86
2017-01-03T02:01:21.700Z,41.83
2017-01-03T02:02:21.731Z,42.03
2017-01-03T02:03:21.358Z,42.12
2017-01-03T02:04:21.779Z,41.93
2017-01-03T02:05:21.411Z,42.03
2017-01-03T02:06:21.440Z,41.93
2017-01-03T02:07:21.853Z,41.56
2017-01-03T02:08:21.490Z,41.83
2017-01-03T02:09:21.526Z,41.55
2017-01-03T02:10:21.542Z,41.83
2017-01-03T02:11:21.568Z,41.74
2017-01-03T02:12:21.597Z,41.74
2017-01-03T02:13:22.014Z,41.86
2017-01-03T02:14:21.646Z,41.86
2017-01-03T02:15:21.667Z,41.45
2017-01-03T02:16:21.700Z,41.74
2017-01-03T02:17:21.724Z,41.64
2017-01-03T02:18:22.149Z,41.74
2017-01-03T02:19:21.778Z,41.35
2017-01-03T02:20:22.219Z,41.35
2017-01-03T02:21:22.228Z,41.64
2017-01-03T02:22:21.856Z,41.55
2017-01-03T02:23:21.881Z,41.45
2017-01-03T02:24:21.914Z,41.35
2017-01-03T02:25:22.334Z,41.35
2017-01-03T02:26:21.963Z,41.55
2017-01-03T02:27:21.984Z,41.45
2017-01-03T02:28:22.409Z,41.35
2017-01-03T02:29:22.437Z,41.35
2017-01-03T02:30:22.061Z,41.55
2017-01-03T02:31:22.491Z,41.74
2017-01-03T02:32:22.116Z,41.55
2017-01-03T02:33:22.149Z,41.35
2017-01-03T02:34:22.565Z,41.35
2017-01-03T02:35:22.194Z,41.55
2017-01-03T02:36:22.623Z,41.35
2017-01-03T02:37:22.247Z,41.35
2017-01-03T02:38:22.668Z,41.26
2017-01-03T02:39:22.300Z,41.55
2017-01-03T02:40:22.321Z,41.55
2017-01-03T02:41:22.358Z,41.55
2017-01-03T02:42:22.379Z,41.55
2017-01-03T02:43:22.800Z,41.55
2017-01-03T02:44:22.831Z,41.35
2017-01-03T02:45:22.858Z,41.55
2017-01-03T02:46:22.882Z,41.55
2017-01-03T02:47:22.516Z,40.97
2017-01-03T02:48:22.543Z,40.97
2017-01-03T02:49:22.964Z,41.16
2017-01-03T02:50:22.989Z,40.97
2017-01-03T02:51:22.618Z,40.97
2017-01-03T02:52:23.048Z,41.06
2017-01-03T02:53:23.068Z,41.45
2017-01-03T02:54:22.700Z,40.97
2017-01-03T02:55:23.116Z,41.35
2017-01-03T02:56:23.141Z,41.35
2017-01-03T02:57:22.784Z,41.26
2017-01-03T02:58:22.803Z,41.16
2017-01-03T02:59:23.228Z,41.16
2017-01-03T03:00:23.252Z,41.35
2017-01-03T03:01:23.276Z,41.26
2017-01-03T03:02:23.307Z,41.26
2017-01-03T03:03:22.935Z,41.26
2017-01-03T03:04:23.359Z,41.06
2017-01-03T03:05:23.384Z,41.26
2017-01-03T03:06:23.013Z,41.06
2017-01-03T03:07:23.042Z,41.06
2017-01-03T03:08:23.067Z,41.06
2017-01-03T03:09:23.488Z,41.06
2017-01-03T03:10:23.116Z,41.06
2017-01-03T03:11:23.541Z,41.45
2017-01-03T03:12:23.180Z,41.06
2017-01-03T03:13:23.199Z,41.35
2017-01-03T03:14:23.223Z,41.35
2017-01-03T03:15:23.652Z,41.26
2017-01-03T03:16:23.276Z,41.16
2017-01-03T03:17:23.694Z,41.26
2017-01-03T03:18:23.726Z,41.26
2017-01-03T03:19:23.354Z,41.16
2017-01-03T03:20:23.775Z,41.16
2017-01-03T03:21:23.409Z,41.16
2017-01-03T03:22:23.429Z,41.16
2017-01-03T03:23:23.458Z,41.16
2017-01-03T03:24:23.882Z,41.16
2017-01-03T03:25:23.908Z,41.26
2017-01-03T03:26:23.931Z,40.97
2017-01-03T03:27:23.564Z,41.26
2017-01-03T03:28:23.593Z,41.16
2017-01-03T03:29:23.622Z,41.16
2017-01-03T03:30:24.039Z,41.16
2017-01-03T03:31:23.672Z,41.16
2017-01-03T03:32:23.691Z,41.16
2017-01-03T03:33:23.718Z,40.88
2017-01-03T03:34:24.146Z,41.16
2017-01-03T03:35:23.771Z,41.16
2017-01-03T03:36:23.799Z,40.97
2017-01-03T03:37:24.233Z,40.78
2017-01-03T03:38:23.849Z,40.78
2017-01-03T03:39:23.878Z,40.78
2017-01-03T03:40:23.907Z,41.06
2017-01-03T03:41:24.327Z,40.97
2017-01-03T03:42:24.355Z,41.06
2017-01-03T03:43:24.381Z,41.16
2017-01-03T03:44:24.405Z,41.16
2017-01-03T03:45:24.038Z,41.16
2017-01-03T03:46:24.063Z,41.16
2017-01-03T03:47:24.083Z,41.26
2017-01-03T03:48:24.116Z,41.35
2017-01-03T03:49:24.137Z,41.14
2017-01-03T03:50:24.569Z,41.35
2017-01-03T03:51:24.190Z,41.45
2017-01-03T03:52:24.223Z,41.35
2017-01-03T03:53:24.243Z,41.35
2017-01-03T03:54:24.268Z,41.26
2017-01-03T03:55:24.297Z,41.35
2017-01-03T03:56:24.719Z,41.33
2017-01-03T03:57:24.351Z,41.14
2017-01-03T03:58:24.778Z,41.05
2017-01-03T03:59:24.399Z,41.35
2017-01-03T04:00:24.428Z,41.14
2017-01-03T04:01:24.452Z,41.53
2017-01-03T04:02:24.875Z,41.45
2017-01-03T04:03:24.903Z,41.14
2017-01-03T04:04:24.927Z,40.76
2017-01-03T04:05:24.957Z,41.53
2017-01-03T04:06:24.981Z,41.05
2017-01-03T04:07:25.006Z,41.33
2017-01-03T04:08:24.647Z,40.76
2017-01-03T04:09:25.064Z,41.05
2017-01-03T04:10:25.084Z,41.43
2017-01-03T04:11:24.713Z,41.43
2017-01-03T04:12:25.129Z,41.55
2017-01-03T04:13:25.162Z,41.43
2017-01-03T04:14:24.791Z,40.76
2017-01-03T04:15:24.818Z,41.05
2017-01-03T04:16:24.844Z,41.33
2017-01-03T04:17:24.869Z,40.95
2017-01-03T04:18:25.294Z,41.33
2017-01-03T04:19:24.923Z,41.43
2017-01-03T04:20:25.339Z,41.62
2017-01-03T04:21:25.376Z,41.43
2017-01-03T04:22:25.397Z,41.53
2017-01-03T04:23:25.025Z,41.53
2017-01-03T04:24:25.450Z,40.76
2017-01-03T04:25:25.075Z,40.95
2017-01-03T04:26:25.107Z,40.56
2017-01-03T04:27:25.133Z,40.95
2017-01-03T04:28:25.549Z,41.24
2017-01-03T04:29:25.582Z,40.85
2017-01-03T04:30:25.211Z,41.05
2017-01-03T04:31:25.231Z,41.24
2017-01-03T04:32:25.256Z,40.85
2017-01-03T04:33:25.289Z,40.76
2017-01-03T04:34:25.715Z,40.66
2017-01-03T04:35:25.338Z,40.66
2017-01-03T04:36:25.363Z,40.76
2017-01-03T04:37:25.788Z,40.56
2017-01-03T04:38:25.416Z,40.85
2017-01-03T04:39:25.445Z,40.76
2017-01-03T04:40:25.474Z,40.56
2017-01-03T04:41:25.494Z,40.56
2017-01-03T04:42:25.519Z,40.95
2017-01-03T04:43:25.545Z,40.56
2017-01-03T04:44:25.969Z,40.66
2017-01-03T04:45:25.997Z,40.85
2017-01-03T04:46:25.625Z,40.85
2017-01-03T04:47:25.651Z,40.76
2017-01-03T04:48:25.679Z,40.85
2017-01-03T04:49:25.700Z,41.33
2017-01-03T04:50:25.724Z,40.85
2017-01-03T04:51:26.149Z,41.53
2017-01-03T04:52:25.782Z,41.53
2017-01-03T04:53:26.199Z,40.95
2017-01-03T04:54:25.831Z,41.62
2017-01-03T04:55:25.860Z,40.95
2017-01-03T04:56:26.281Z,41.43
2017-01-03T04:57:26.306Z,41.53
2017-01-03T04:58:26.334Z,40.95
2017-01-03T04:59:25.963Z,40.85
2017-01-03T05:00:26.385Z,40.66
2017-01-03T05:01:26.404Z,40.76
2017-01-03T05:02:26.439Z,40.76
2017-01-03T05:03:26.461Z,40.76
2017-01-03T05:04:26.091Z,40.76
2017-01-03T05:05:26.119Z,40.85
2017-01-03T05:06:26.535Z,40.66
2017-01-03T05:07:26.564Z,40.66
2017-01-03T05:08:26.193Z,40.56
2017-01-03T05:09:26.221Z,40.47
2017-01-03T05:10:26.251Z,40.95
2017-01-03T05:11:26.275Z,40.56
2017-01-03T05:12:26.296Z,40.47
2017-01-03T05:13:26.717Z,40.76
2017-01-03T05:14:26.745Z,40.76
2017-01-03T05:15:26.770Z,40.56
2017-01-03T05:16:26.403Z,40.56
2017-01-03T05:17:26.427Z,40.56
2017-01-03T05:18:26.455Z,40.76
2017-01-03T05:19:26.480Z,40.56
2017-01-03T05:20:26.505Z,40.76
2017-01-03T05:21:26.533Z,40.76
2017-01-03T05:22:26.554Z,40.76
2017-01-03T05:23:26.974Z,40.56
2017-01-03T05:24:27.003Z,40.66
2017-01-03T05:25:27.031Z,40.95
2017-01-03T05:26:27.064Z,40.76
2017-01-03T05:27:26.684Z,41.33
2017-01-03T05:28:27.101Z,40.95
2017-01-03T05:29:27.130Z,40.95
2017-01-03T05:30:26.759Z,40.76
2017-01-03T05:31:27.188Z,40.85
2017-01-03T05:32:26.816Z,40.76
2017-01-03T05:33:27.231Z,40.76
2017-01-03T05:34:27.261Z,40.85
2017-01-03T05:35:26.893Z,40.56
2017-01-03T05:36:26.918Z,40.76
2017-01-03T05:37:26.943Z,40.66
2017-01-03T05:38:26.968Z,40.66
2017-01-03T05:39:27.393Z,40.47
2017-01-03T05:40:27.413Z,40.76
2017-01-03T05:41:27.446Z,40.95
2017-01-03T05:42:27.470Z,40.76
2017-01-03T05:43:27.491Z,40.95
2017-01-03T05:44:27.520Z,40.76
2017-01-03T05:45:27.153Z,40.85
2017-01-03T05:46:27.173Z,40.56
2017-01-03T05:47:27.602Z,40.47
2017-01-03T05:48:27.223Z,40.78
2017-01-03T05:49:27.255Z,40.39
2017-01-03T05:50:27.280Z,40.58
2017-01-03T05:51:27.701Z,40.49
2017-01-03T05:52:27.721Z,40.58
2017-01-03T05:53:27.354Z,40.78
2017-01-03T05:54:27.379Z,40.58
2017-01-03T05:55:27.803Z,40.68
2017-01-03T05:56:27.436Z,40.49
2017-01-03T05:57:27.461Z,40.11
2017-01-03T05:58:27.877Z,40.3
2017-01-03T05:59:27.510Z,40.11
2017-01-03T06:00:27.935Z,40.01
2017-01-03T06:01:27.963Z,39.91
2017-01-03T06:02:27.592Z,39.93
2017-01-03T06:03:27.617Z,39.93
2017-01-03T06:04:28.042Z,39.91
2017-01-03T06:05:28.066Z,40.8
2017-01-03T06:06:27.694Z,40.7
2017-01-03T06:07:28.117Z,40.31
2017-01-03T06:08:28.144Z,40.8
2017-01-03T06:09:27.773Z,40.8
2017-01-03T06:10:28.198Z,40.7
2017-01-03T06:11:28.218Z,40.61
2017-01-03T06:12:28.247Z,40.8
2017-01-03T06:13:28.272Z,40.8
2017-01-03T06:14:28.296Z,40.51
2017-01-03T06:15:28.333Z,40.89
2017-01-03T06:16:27.954Z,40.89
2017-01-03T06:17:27.978Z,40.8
2017-01-03T06:18:28.007Z,40.99
2017-01-03T06:19:28.035Z,40.51
2017-01-03T06:20:28.056Z,40.89
2017-01-03T06:21:28.478Z,40.99
2017-01-03T06:22:28.507Z,40.99
2017-01-03T06:23:28.534Z,40.61
2017-01-03T06:24:28.163Z,40.8
2017-01-03T06:25:28.580Z,40.51
2017-01-03T06:26:28.217Z,40.51
2017-01-03T06:27:28.246Z,40.72
2017-01-03T06:28:28.271Z,40.72
2017-01-03T06:29:28.291Z,40.53
2017-01-03T06:30:28.327Z,40.14
2017-01-03T06:31:28.349Z,40.14
2017-01-03T06:32:28.774Z,40.14
2017-01-03T06:33:28.402Z,40.05
2017-01-03T06:34:28.427Z,39.76
2017-01-03T06:35:28.455Z,40.14
2017-01-03T06:36:28.479Z,39.66
2017-01-03T06:37:28.505Z,39.56
2017-01-03T06:38:28.917Z,39.76
2017-01-03T06:39:28.955Z,39.76
2017-01-03T06:40:28.983Z,39.56
2017-01-03T06:41:29.008Z,39.86
2017-01-03T06:42:29.036Z,39.95
2017-01-03T06:43:29.064Z,39.95
2017-01-03T06:44:29.085Z,40.05
2017-01-03T06:45:28.723Z,39.86
2017-01-03T06:46:28.743Z,39.76
2017-01-03T06:47:28.768Z,39.66
2017-01-03T06:48:29.192Z,39.86
2017-01-03T06:49:29.218Z,39.66
2017-01-03T06:50:28.851Z,39.95
2017-01-03T06:51:28.875Z,39.66
2017-01-03T06:52:28.903Z,39.56
2017-01-03T06:53:28.925Z,39.37
2017-01-03T06:54:28.953Z,39.56
2017-01-03T06:55:28.982Z,39.37
2017-01-03T06:56:29.007Z,39.47
2017-01-03T06:57:29.428Z,39.28
2017-01-03T06:58:29.449Z,39.47
2017-01-03T06:59:29.481Z,39.47
2017-01-03T07:00:29.113Z,39.56
2017-01-03T07:01:29.534Z,39.47
2017-01-03T07:02:29.559Z,39.47
2017-01-03T07:03:29.192Z,39.45
2017-01-03T07:04:29.606Z,39.56
2017-01-03T07:05:29.245Z,39.28
2017-01-03T07:06:29.666Z,39.18
2017-01-03T07:07:29.299Z,39.47
2017-01-03T07:08:29.719Z,39.37
2017-01-03T07:09:29.348Z,39.28
2017-01-03T07:10:29.764Z,39.47
2017-01-03T07:11:29.405Z,39.28
2017-01-03T07:12:29.818Z,39.37
2017-01-03T07:13:29.847Z,39.36
2017-01-03T07:14:29.876Z,38.99
2017-01-03T07:15:29.905Z,38.7
2017-01-03T07:16:29.534Z,39.18
2017-01-03T07:17:29.562Z,39.37
2017-01-03T07:18:29.982Z,38.99
2017-01-03T07:19:30.013Z,39.18
2017-01-03T07:20:29.636Z,38.99
2017-01-03T07:21:29.669Z,39.06
2017-01-03T07:22:30.090Z,38.99
2017-01-03T07:23:30.119Z,38.89
2017-01-03T07:24:30.143Z,39.18
2017-01-03T07:25:30.160Z,38.99
2017-01-03T07:26:29.801Z,38.7
2017-01-03T07:27:30.229Z,38.89
2017-01-03T07:28:30.258Z,38.41
2017-01-03T07:29:30.275Z,38.41
2017-01-03T07:30:30.296Z,38.79
2017-01-03T07:31:30.325Z,38.99
2017-01-03T07:32:30.351Z,39.18
2017-01-03T07:33:30.382Z,38.89
2017-01-03T07:34:30.407Z,39.18
2017-01-03T07:35:30.035Z,38.89
2017-01-03T07:36:30.064Z,38.7
2017-01-03T07:37:30.094Z,38.7
2017-01-03T07:38:30.518Z,38.7
2017-01-03T07:39:30.150Z,38.89
2017-01-03T07:40:30.168Z,38.6
2017-01-03T07:41:30.198Z,38.89
2017-01-03T07:42:30.624Z,38.89
2017-01-03T07:43:30.649Z,38.6
2017-01-03T07:44:30.280Z,39.37
2017-01-03T07:45:30.695Z,38.68
2017-01-03T07:46:30.328Z,38.99
2017-01-03T07:47:30.357Z,38.51
2017-01-03T07:48:30.781Z,38.49
2017-01-03T07:49:30.410Z,38.6
2017-01-03T07:50:30.834Z,38.51
2017-01-03T07:51:30.860Z,38.89
2017-01-03T07:52:30.488Z,38.68
2017-01-03T07:53:30.518Z,38.49
2017-01-03T07:54:30.942Z,38.49
2017-01-03T07:55:30.573Z,38.7
2017-01-03T07:56:30.594Z,38.6
2017-01-03T07:57:31.020Z,38.59
2017-01-03T07:58:31.045Z,38.59
2017-01-03T07:59:30.673Z,38.59
2017-01-03T08:00:31.097Z,38.68
2017-01-03T08:01:31.131Z,39.06
2017-01-03T08:02:30.755Z,38.78
2017-01-03T08:03:31.192Z,38.68
2017-01-03T08:04:31.205Z,38.87
2017-01-03T08:05:30.835Z,38.87
2017-01-03T08:06:30.862Z,38.97
2017-01-03T08:07:31.317Z,39.06
2017-01-03T08:08:31.309Z,38.87
2017-01-03T08:09:30.940Z,38.68
2017-01-03T08:10:30.965Z,39.26
2017-01-03T08:11:31.005Z,38.87
2017-01-03T08:12:31.022Z,39.36
2017-01-03T08:13:31.443Z,39.45
2017-01-03T08:14:31.072Z,39.36
2017-01-03T08:15:31.127Z,39.45
2017-01-03T08:16:31.126Z,39.54
2017-01-03T08:17:31.154Z,39.26
2017-01-03T08:18:31.170Z,39.54
2017-01-03T08:19:31.203Z,40.03
2017-01-03T08:20:31.228Z,39.74
2017-01-03T08:21:31.652Z,39.93
2017-01-03T08:22:31.281Z,39.74
2017-01-03T08:23:31.706Z,39.83
2017-01-03T08:24:31.731Z,39.83
2017-01-03T08:25:31.359Z,39.64
2017-01-03T08:26:31.792Z,39.83
2017-01-03T08:27:31.413Z,39.54
2017-01-03T08:28:31.437Z,39.93
2017-01-03T08:29:31.461Z,40.12
2017-01-03T08:30:31.883Z,40.22
2017-01-03T08:31:31.943Z,39.93
2017-01-03T08:32:31.945Z,40.22
2017-01-03T08:33:31.964Z,39.74
2017-01-03T08:34:31.598Z,39.93
2017-01-03T08:35:31.626Z,40.12
2017-01-03T08:36:31.651Z,39.74
2017-01-03T08:37:31.671Z,39.93
2017-01-03T08:38:31.703Z,39.93
2017-01-03T08:39:31.729Z,40.03
2017-01-03T08:40:31.750Z,40.03
2017-01-03T08:41:32.179Z,40.03
2017-01-03T08:42:32.199Z,39.93
2017-01-03T08:43:32.232Z,40.61
2017-01-03T08:44:32.260Z,40.7
2017-01-03T08:45:31.881Z,40.7
2017-01-03T08:46:32.310Z,40.7
2017-01-03T08:47:31.943Z,41.38
2017-01-03T08:48:31.967Z,41.18
2017-01-03T08:49:31.986Z,41.76
2017-01-03T08:50:32.013Z,41.86
2017-01-03T08:51:32.441Z,41.38
2017-01-03T08:52:32.066Z,41.95
2017-01-03T08:53:32.499Z,42.05
2017-01-03T08:54:32.123Z,41.66
2017-01-03T08:55:32.140Z,42.24
2017-01-03T08:56:32.177Z,42.24
2017-01-03T08:57:32.596Z,42.24
2017-01-03T08:58:32.236Z,42.43
2017-01-03T08:59:32.651Z,42.72
2017-01-03T09:00:32.675Z,43.2
2017-01-03T09:01:32.708Z,42.63
2017-01-03T09:02:32.729Z,43.4
2017-01-03T09:03:32.758Z,43.11
2017-01-03T09:04:32.393Z,43.11
2017-01-03T09:05:32.806Z,43.2
2017-01-03T09:06:32.439Z,43.59
2017-01-03T09:07:32.856Z,43.3
2017-01-03T09:08:32.492Z,42.82
2017-01-03T09:09:32.917Z,43.3
2017-01-03T09:10:32.938Z,43.2
2017-01-03T09:11:32.962Z,43.88
2017-01-03T09:12:32.987Z,43.78
2017-01-03T09:13:33.023Z,43.2
2017-01-03T09:14:32.647Z,43.68
2017-01-03T09:15:33.076Z,43.49
2017-01-03T09:16:32.701Z,43.49
2017-01-03T09:17:33.121Z,43.49
2017-01-03T09:18:33.149Z,43.68
2017-01-03T09:19:32.782Z,43.49
2017-01-03T09:20:32.803Z,43.59
2017-01-03T09:21:32.835Z,43.68
2017-01-03T09:22:32.855Z,43.59
2017-01-03T09:23:32.883Z,43.78
2017-01-03T09:24:33.305Z,43.78
2017-01-03T09:25:32.937Z,44.07
2017-01-03T09:26:33.361Z,43.3
2017-01-03T09:27:33.382Z,43.68
2017-01-03T09:28:33.411Z,43.49
2017-01-03T09:29:33.039Z,43.68
2017-01-03T09:30:33.064Z,43.88
2017-01-03T09:31:33.492Z,43.68
2017-01-03T09:32:33.512Z,43.97
2017-01-03T09:33:33.146Z,44.07
2017-01-03T09:34:33.170Z,43.88
2017-01-03T09:35:33.199Z,43.68
2017-01-03T09:36:33.223Z,43.59
2017-01-03T09:37:33.647Z,43.68
2017-01-03T09:38:33.276Z,43.11
2017-01-03T09:39:33.699Z,42.63
2017-01-03T09:40:33.721Z,43.01
2017-01-03T09:41:33.365Z,42.82
2017-01-03T09:42:33.378Z,42.82
2017-01-03T09:43:33.799Z,42.91
2017-01-03T09:44:33.827Z,43.49
2017-01-03T09:45:33.857Z,43.49
2017-01-03T09:46:33.881Z,43.49
2017-01-03T09:47:33.513Z,43.68
2017-01-03T09:48:33.926Z,43.88
2017-01-03T09:49:33.562Z,43.78
2017-01-03T09:50:33.987Z,43.49
2017-01-03T09:51:34.012Z,43.2
2017-01-03T09:52:33.644Z,42.43
2017-01-03T09:53:33.673Z,43.11
2017-01-03T09:54:33.686Z,42.91
2017-01-03T09:55:34.118Z,42.63
2017-01-03T09:56:33.747Z,42.91
2017-01-03T09:57:34.163Z,42.91
2017-01-03T09:58:34.199Z,43.2
2017-01-03T09:59:33.825Z,43.3
2017-01-03T10:00:34.244Z,43.01
2017-01-03T10:01:34.274Z,42.24
2017-01-03T10:02:33.903Z,42.43
2017-01-03T10:03:33.931Z,42.63
2017-01-03T10:04:33.960Z,42.53
2017-01-03T10:05:33.988Z,42.63
2017-01-03T10:06:34.405Z,42.53
2017-01-03T10:07:34.035Z,42.53
2017-01-03T10:08:34.063Z,42.63
2017-01-03T10:09:34.483Z,42.72
2017-01-03T10:10:34.513Z,42.53
2017-01-03T10:11:34.533Z,42.41
2017-01-03T10:12:34.164Z,42.32
2017-01-03T10:13:34.194Z,42.6
2017-01-03T10:14:34.619Z,42.6
2017-01-03T10:15:34.644Z,42.03
2017-01-03T10:16:34.276Z,42.6
2017-01-03T10:17:34.700Z,42.7
2017-01-03T10:18:34.325Z,42.41
2017-01-03T10:19:34.746Z,42.6
2017-01-03T10:20:34.380Z,42.41
2017-01-03T10:21:34.799Z,42.12
2017-01-03T10:22:34.824Z,42.22
2017-01-03T10:23:34.856Z,42.6
2017-01-03T10:24:34.481Z,42.41
2017-01-03T10:25:34.906Z,42.6
2017-01-03T10:26:34.932Z,42.22
2017-01-03T10:27:34.959Z,42.5
2017-01-03T10:28:34.588Z,42.6
2017-01-03T10:29:34.613Z,42.32
2017-01-03T10:30:34.645Z,42.6
2017-01-03T10:31:35.062Z,42.33
2017-01-03T10:32:34.691Z,42.41
2017-01-03T10:33:35.115Z,42.03
2017-01-03T10:34:35.141Z,42.63
2017-01-03T10:35:35.165Z,42.32
2017-01-03T10:36:34.797Z,42.22
2017-01-03T10:37:35.210Z,42.6
2017-01-03T10:38:35.300Z,42.32
2017-01-03T10:39:35.272Z,42.41
2017-01-03T10:40:34.900Z,42.41
2017-01-03T10:41:35.325Z,42.41
2017-01-03T10:42:35.350Z,42.12
2017-01-03T10:43:35.378Z,42.5
2017-01-03T10:44:35.403Z,42.5
2017-01-03T10:45:35.032Z,42.41
2017-01-03T10:46:35.456Z,42.32
2017-01-03T10:47:35.085Z,42.6
2017-01-03T10:48:35.110Z,42.32
2017-01-03T10:49:35.535Z,42.32
2017-01-03T10:50:35.564Z,42.22
2017-01-03T10:51:35.588Z,42.03
2017-01-03T10:52:35.615Z,42.14
2017-01-03T10:53:35.249Z,42.03
2017-01-03T10:54:35.674Z,42.12
2017-01-03T10:55:35.696Z,42.22
2017-01-03T10:56:35.756Z,42.22
2017-01-03T10:57:35.748Z,42.12
2017-01-03T10:58:35.776Z,42.03
2017-01-03T10:59:35.791Z,42.03
2017-01-03T11:00:35.432Z,42.12
2017-01-03T11:01:35.456Z,42.41
2017-01-03T11:02:35.485Z,42.32
2017-01-03T11:03:35.906Z,42.22
2017-01-03T11:04:35.927Z,42.22
2017-01-03T11:05:35.960Z,42.12
2017-01-03T11:06:35.980Z,42.22
2017-01-03T11:07:36.014Z,42.22
2017-01-03T11:08:36.039Z,42.22
2017-01-03T11:09:36.063Z,42.12
2017-01-03T11:10:35.697Z,42.12
2017-01-03T11:11:35.722Z,42.22
2017-01-03T11:12:36.146Z,42.41
2017-01-03T11:13:36.177Z,42.32
2017-01-03T11:14:36.196Z,42.22
2017-01-03T11:15:35.828Z,42.22
2017-01-03T11:16:35.842Z,42.32
2017-01-03T11:17:36.270Z,42.41
2017-01-03T11:18:35.894Z,42.03
2017-01-03T11:19:35.918Z,42.12
2017-01-03T11:20:35.945Z,42.03
2017-01-03T11:21:36.364Z,42.22
2017-01-03T11:22:35.992Z,42.32
2017-01-03T11:23:36.416Z,42.5
2017-01-03T11:24:36.057Z,42.6
2017-01-03T11:25:36.473Z,42.89
2017-01-03T11:26:36.105Z,42.5
2017-01-03T11:27:36.131Z,42.7
2017-01-03T11:28:36.553Z,42.5
2017-01-03T11:29:36.184Z,42.41
2017-01-03T11:30:36.209Z,42.41
2017-01-03T11:31:36.626Z,43.08
2017-01-03T11:32:36.256Z,43.18
2017-01-03T11:33:36.687Z,42.89
2017-01-03T11:34:36.314Z,42.6
2017-01-03T11:35:36.737Z,43.08
2017-01-03T11:36:36.372Z,42.99
2017-01-03T11:37:36.788Z,42.41
2017-01-03T11:38:36.813Z,42.6
2017-01-03T11:39:36.443Z,42.6
2017-01-03T11:40:36.869Z,42.32
2017-01-03T11:41:36.497Z,42.6
2017-01-03T11:42:36.928Z,42.6
2017-01-03T11:43:36.947Z,42.6
2017-01-03T11:44:36.969Z,42.41
2017-01-03T11:45:36.603Z,42.41
2017-01-03T11:46:37.024Z,42.6
2017-01-03T11:47:37.051Z,42.5
2017-01-03T11:48:37.076Z,42.32
2017-01-03T11:49:37.107Z,42.03
2017-01-03T11:50:37.132Z,41.93
2017-01-03T11:51:37.158Z,42.03
2017-01-03T11:52:37.185Z,42.22
2017-01-03T11:53:37.210Z,42.22
2017-01-03T11:54:37.232Z,42.12
2017-01-03T11:55:37.263Z,42.03
2017-01-03T11:56:37.288Z,42.22
2017-01-03T11:57:37.314Z,42.6
2017-01-03T11:58:37.341Z,42.12
2017-01-03T11:59:37.375Z,42.41
2017-01-03T12:00:37.396Z,42.41
2017-01-03T12:01:37.426Z,42.12
2017-01-03T12:02:37.053Z,42.41
2017-01-03T12:03:37.477Z,42.03
2017-01-03T12:04:37.105Z,42.03
2017-01-03T12:05:37.531Z,42.12
2017-01-03T12:06:37.553Z,42.22
2017-01-03T12:07:37.579Z,42.03
2017-01-03T12:08:37.233Z,42.41
2017-01-03T12:09:37.254Z,42.22
2017-01-03T12:10:37.286Z,42.03
2017-01-03T12:11:37.307Z,42.32
2017-01-03T12:12:37.336Z,42.41
2017-01-03T12:13:37.758Z,42.22
2017-01-03T12:14:37.786Z,42.03
2017-01-03T12:15:37.811Z,42.41
2017-01-03T12:16:37.835Z,42.22
2017-01-03T12:17:37.473Z,42.12
2017-01-03T12:18:37.887Z,41.83
2017-01-03T12:19:37.522Z,41.74
2017-01-03T12:20:37.550Z,41.93
2017-01-03T12:21:37.571Z,41.93
2017-01-03T12:22:37.998Z,41.64
2017-01-03T12:23:38.017Z,41.74
2017-01-03T12:24:37.649Z,42.03
2017-01-03T12:25:37.706Z,41.93
2017-01-03T12:26:37.712Z,42.32
2017-01-03T12:27:38.130Z,41.83
2017-01-03T12:28:37.753Z,41.83
2017-01-03T12:29:38.186Z,42.41
2017-01-03T12:30:38.206Z,42.32
2017-01-03T12:31:38.231Z,42.22
2017-01-03T12:32:38.268Z,42.03
2017-01-03T12:33:37.888Z,41.64
2017-01-03T12:34:38.322Z,41.93
2017-01-03T12:35:37.934Z,42.12
2017-01-03T12:36:37.971Z,42.22
2017-01-03T12:37:37.996Z,42.12
2017-01-03T12:38:38.017Z,42.12
2017-01-03T12:39:38.441Z,42.22
2017-01-03T12:40:38.471Z,42.41
2017-01-03T12:41:38.495Z,42.22
2017-01-03T12:42:38.524Z,42.12
2017-01-03T12:43:38.149Z,42.22
2017-01-03T12:44:38.570Z,42.22
2017-01-03T12:45:38.206Z,42.41
2017-01-03T12:46:38.627Z,42.03
2017-01-03T12:47:38.655Z,42.12
2017-01-03T12:48:38.317Z,41.83
2017-01-03T12:49:38.707Z,42.03
2017-01-03T12:50:38.334Z,41.74
2017-01-03T12:51:38.363Z,41.74
2017-01-03T12:52:38.785Z,41.93
2017-01-03T12:53:38.812Z,42.03
2017-01-03T12:54:38.440Z,41.64